createdAt,value
2019-05-05T00:01:52.102Z,7.11
2019-05-05T00:04:45.514Z,7.03
2019-05-05T00:07:19.932Z,7.09
2019-05-05T00:09:49.912Z,6.98
2019-05-05T00:12:41.805Z,7.14
2019-05-05T00:15:36.829Z,7.19
2019-05-05T00:18:06.945Z,7.21
2019-05-05T00:20:36.955Z,7.10
2019-05-05T00:23:06.947Z,7.11
2019-05-05T00:25:37.017Z,6.88
2019-05-05T00:28:07.057Z,6.94
2019-05-05T00:30:37.031Z,7.06
2019-05-05T00:33:07.034Z,6.91
2019-05-05T00:35:37.061Z,6.92
2019-05-05T00:38:07.072Z,6.91
2019-05-05T00:40:37.096Z,6.80
2019-05-05T00:43:07.079Z,6.83
2019-05-05T00:45:38.711Z,6.82
2019-05-05T00:48:17.162Z,6.74
2019-05-05T00:50:47.117Z,6.69
2019-05-05T00:53:17.111Z,6.62
2019-05-05T00:55:47.101Z,6.64
2019-05-05T00:58:17.098Z,6.51
2019-05-05T01:01:17.936Z,6.57
2019-05-05T01:03:48.963Z,6.53
2019-05-05T01:06:21.665Z,6.51
2019-05-05T01:08:51.647Z,6.51
2019-05-05T01:11:21.697Z,6.59
2019-05-05T01:13:51.678Z,6.13
2019-05-05T01:16:21.634Z,6.10
2019-05-05T01:18:51.628Z,5.95
2019-05-05T01:21:21.602Z,5.67
2019-05-05T01:23:51.590Z,5.86
2019-05-05T01:26:21.669Z,5.92
2019-05-05T01:28:51.682Z,6.13
2019-05-05T01:31:22.438Z,6.04
2019-05-05T01:34:07.250Z,6.13
2019-05-05T01:36:37.212Z,6.29
2019-05-05T01:39:25.292Z,6.22
2019-05-05T01:41:58.079Z,6.41
2019-05-05T01:44:28.066Z,6.44
2019-05-05T01:46:58.030Z,6.43
2019-05-05T01:49:28.025Z,6.42
2019-05-05T01:51:58.055Z,6.35
2019-05-05T01:54:28.142Z,6.35
2019-05-05T01:56:58.155Z,6.36
2019-05-05T01:59:28.334Z,6.23
2019-05-05T02:01:58.327Z,6.22
2019-05-05T02:04:28.296Z,6.28
2019-05-05T02:06:58.259Z,6.21
2019-05-05T02:09:28.318Z,6.20
2019-05-05T02:11:58.350Z,6.19
2019-05-05T02:14:28.704Z,5.96
2019-05-05T02:16:58.670Z,6.20
2019-05-05T02:19:28.652Z,6.21
2019-05-05T02:21:58.595Z,5.99
2019-05-05T02:24:28.604Z,6.07
2019-05-05T02:26:58.586Z,6.13
2019-05-05T02:29:35.311Z,5.97
2019-05-05T02:32:25.634Z,6.06
2019-05-05T02:34:58.061Z,6.07
2019-05-05T02:37:28.037Z,6.04
2019-05-05T02:40:03.288Z,5.99
2019-05-05T02:42:30.208Z,5.90
2019-05-05T02:45:05.561Z,6.02
2019-05-05T02:47:59.298Z,5.99
2019-05-05T02:50:48.413Z,5.90
2019-05-05T02:53:04.143Z,5.95
2019-05-05T02:55:34.959Z,5.95
2019-05-05T02:58:04.938Z,5.92
2019-05-05T03:00:54.223Z,5.90
2019-05-05T03:03:24.257Z,5.94
2019-05-05T03:05:54.712Z,5.89
2019-05-05T03:08:24.986Z,5.86
2019-05-05T03:10:55.055Z,5.80
2019-05-05T03:13:25.833Z,5.86
2019-05-05T03:16:14.224Z,5.78
2019-05-05T03:18:44.147Z,5.79
2019-05-05T03:21:14.322Z,5.71
2019-05-05T03:23:44.280Z,5.70
2019-05-05T03:26:14.632Z,5.71
2019-05-05T03:28:48.847Z,5.78
2019-05-05T03:31:18.928Z,5.68
2019-05-05T03:33:49.296Z,5.47
2019-05-05T03:36:19.493Z,5.53
2019-05-05T03:38:49.538Z,5.65
2019-05-05T03:41:25.318Z,5.50
2019-05-05T03:44:14.009Z,5.53
2019-05-05T03:46:43.944Z,5.55
2019-05-05T03:49:14.231Z,5.42
2019-05-05T03:51:44.743Z,5.25
2019-05-05T03:54:14.888Z,5.51
2019-05-05T03:56:45.091Z,5.46
2019-05-05T03:59:15.046Z,5.46
2019-05-05T04:02:10.037Z,5.45
2019-05-05T04:04:46.919Z,5.45
2019-05-05T04:07:17.211Z,5.32
2019-05-05T04:09:48.078Z,5.29
2019-05-05T04:12:18.342Z,5.30
2019-05-05T04:14:48.304Z,5.23
2019-05-05T04:17:28.021Z,5.33
2019-05-05T04:19:58.501Z,5.33
2019-05-05T04:22:28.506Z,5.06
2019-05-05T04:24:58.485Z,5.14
2019-05-05T04:27:28.492Z,5.10
2019-05-05T04:29:58.462Z,5.00
2019-05-05T04:32:28.460Z,4.68
2019-05-05T04:34:58.413Z,4.90
2019-05-05T04:37:28.464Z,4.90
2019-05-05T04:39:58.425Z,4.76
2019-05-05T04:42:28.409Z,5.04
2019-05-05T04:44:58.473Z,5.03
2019-05-05T04:47:34.278Z,4.85
2019-05-05T04:50:20.975Z,4.63
2019-05-05T04:52:53.936Z,4.66
2019-05-05T04:55:24.448Z,4.98
2019-05-05T04:57:54.559Z,4.94
2019-05-05T05:00:24.514Z,4.98
2019-05-05T05:02:59.936Z,5.02
2019-05-05T05:05:48.873Z,4.92
2019-05-05T05:08:18.867Z,5.14
2019-05-05T05:10:48.977Z,5.06
2019-05-05T05:13:18.946Z,5.13
2019-05-05T05:15:48.985Z,5.13
2019-05-05T05:18:19.000Z,5.10
2019-05-05T05:20:48.993Z,5.22
2019-05-05T05:23:19.005Z,5.16
2019-05-05T05:25:48.965Z,5.23
2019-05-05T05:28:18.949Z,5.12
2019-05-05T05:30:48.945Z,5.10
2019-05-05T05:33:18.913Z,5.09
2019-05-05T05:35:48.890Z,5.25
2019-05-05T05:38:18.863Z,4.96
2019-05-05T05:41:00.791Z,5.17
2019-05-05T05:44:03.615Z,5.35
2019-05-05T05:47:03.487Z,5.13
2019-05-05T05:49:45.967Z,5.23
2019-05-05T05:52:19.193Z,5.27
2019-05-05T05:54:47.632Z,5.31
2019-05-05T05:57:17.598Z,5.39
2019-05-05T05:59:47.601Z,5.37
2019-05-05T06:02:17.605Z,5.52
2019-05-05T06:04:47.609Z,5.38
2019-05-05T06:07:17.585Z,5.29
2019-05-05T06:09:47.579Z,5.46
2019-05-05T06:12:17.579Z,5.52
2019-05-05T06:14:47.566Z,5.64
2019-05-05T06:17:17.522Z,5.69
2019-05-05T06:19:47.517Z,5.64
2019-05-05T06:22:28.077Z,5.81
2019-05-05T06:24:49.229Z,5.83
2019-05-05T06:27:19.230Z,5.58
2019-05-05T06:29:49.249Z,5.86
2019-05-05T06:32:19.234Z,5.87
2019-05-05T06:34:49.322Z,5.77
2019-05-05T06:37:19.318Z,5.96
2019-05-05T06:39:50.982Z,6.17
2019-05-05T06:42:30.134Z,6.27
2019-05-05T06:45:05.396Z,6.17
2019-05-05T06:47:39.426Z,6.16
2019-05-05T06:50:09.635Z,6.34
2019-05-05T06:52:44.198Z,6.51
2019-05-05T06:55:11.360Z,6.87
2019-05-05T06:57:41.352Z,6.96
2019-05-05T07:00:11.438Z,7.16
2019-05-05T07:02:41.468Z,7.19
2019-05-05T07:05:11.456Z,7.21
2019-05-05T07:07:43.440Z,7.42
2019-05-05T07:10:14.068Z,8.02
2019-05-05T07:12:44.196Z,7.34
2019-05-05T07:15:14.606Z,8.21
2019-05-05T07:17:44.642Z,8.22
2019-05-05T07:20:14.746Z,8.11
2019-05-05T07:22:58.353Z,8.16
2019-05-05T07:25:16.444Z,8.15
2019-05-05T07:27:46.406Z,7.83
2019-05-05T07:30:16.496Z,7.78
2019-05-05T07:32:46.496Z,8.15
2019-05-05T07:35:26.119Z,8.18
2019-05-05T07:37:56.595Z,8.55
2019-05-05T07:40:26.619Z,8.63
2019-05-05T07:42:56.594Z,8.85
2019-05-05T07:45:26.622Z,8.74
2019-05-05T07:47:56.631Z,8.99
2019-05-05T07:50:32.187Z,9.36
2019-05-05T07:53:11.409Z,9.56
2019-05-05T07:55:30.078Z,9.60
2019-05-05T07:58:00.092Z,9.76
2019-05-05T08:00:30.060Z,9.91
2019-05-05T08:03:00.085Z,10.16
2019-05-05T08:05:30.127Z,10.46
2019-05-05T08:08:00.110Z,10.15
2019-05-05T08:10:31.475Z,10.64
2019-05-05T08:13:04.636Z,10.59
2019-05-05T08:15:35.158Z,11.45
2019-05-05T08:18:27.072Z,11.31
2019-05-05T08:20:59.765Z,11.30
2019-05-05T08:23:38.611Z,11.05
2019-05-05T08:26:28.541Z,12.25
2019-05-05T08:29:26.623Z,11.98
2019-05-05T08:32:05.925Z,12.00
2019-05-05T08:34:35.933Z,11.84
2019-05-05T08:37:05.945Z,11.15
2019-05-05T08:39:35.921Z,11.47
2019-05-05T08:42:05.948Z,12.51
2019-05-05T08:44:35.944Z,12.70
2019-05-05T08:47:06.155Z,12.12
2019-05-05T08:49:36.141Z,12.72
2019-05-05T08:52:06.237Z,12.47
2019-05-05T08:54:36.238Z,12.39
2019-05-05T08:57:06.304Z,12.50
2019-05-05T08:59:36.276Z,13.27
2019-05-05T09:02:06.327Z,13.02
2019-05-05T09:04:36.341Z,12.91
2019-05-05T09:07:06.338Z,13.10
2019-05-05T09:09:36.384Z,13.08
2019-05-05T09:12:06.379Z,13.08
2019-05-05T09:14:36.429Z,13.56
2019-05-05T09:17:06.639Z,12.78
2019-05-05T09:19:36.682Z,13.36
2019-05-05T09:22:08.718Z,13.95
2019-05-05T09:25:04.280Z,14.22
2019-05-05T09:27:44.470Z,13.69
2019-05-05T09:30:15.172Z,13.53
2019-05-05T09:32:45.203Z,13.94
2019-05-05T09:35:15.191Z,14.17
2019-05-05T09:37:45.203Z,14.04
2019-05-05T09:40:18.289Z,15.07
2019-05-05T09:42:48.297Z,15.07
2019-05-05T09:45:18.324Z,15.48
2019-05-05T09:47:48.301Z,15.47
2019-05-05T09:50:18.317Z,13.85
2019-05-05T09:52:48.283Z,14.93
2019-05-05T09:55:18.313Z,14.97
2019-05-05T09:57:48.298Z,15.60
2019-05-05T10:00:18.300Z,15.61
2019-05-05T10:02:48.311Z,16.17
2019-05-05T10:05:18.337Z,14.81
2019-05-05T10:07:48.362Z,14.71
2019-05-05T10:10:18.412Z,14.33
2019-05-05T10:12:48.398Z,14.64
2019-05-05T10:15:18.414Z,14.58
2019-05-05T10:17:48.420Z,15.11
2019-05-05T10:20:18.493Z,15.31
2019-05-05T10:22:48.470Z,15.62
2019-05-05T10:25:53.972Z,16.52
2019-05-05T10:28:24.073Z,15.36
2019-05-05T10:30:54.109Z,14.94
2019-05-05T10:33:24.685Z,14.99
2019-05-05T10:35:54.798Z,14.03
2019-05-05T10:38:24.816Z,14.85
2019-05-05T10:40:54.841Z,15.17
2019-05-05T10:43:24.835Z,14.81
2019-05-05T10:45:54.877Z,15.32
2019-05-05T10:48:24.860Z,15.25
2019-05-05T10:50:55.373Z,14.82
2019-05-05T10:53:25.385Z,14.84
2019-05-05T10:55:55.383Z,15.20
2019-05-05T10:58:25.388Z,14.62
2019-05-05T11:01:03.948Z,14.63
2019-05-05T11:03:34.282Z,13.97
2019-05-05T11:06:04.731Z,14.28
2019-05-05T11:08:35.082Z,13.80
2019-05-05T11:11:05.106Z,13.81
2019-05-05T11:13:35.131Z,14.36
2019-05-05T11:16:05.151Z,14.20
2019-05-05T11:18:35.224Z,13.72
2019-05-05T11:21:05.497Z,14.34
2019-05-05T11:23:35.482Z,14.20
2019-05-05T11:26:05.481Z,13.96
2019-05-05T11:28:58.706Z,13.73
2019-05-05T11:31:23.845Z,13.80
2019-05-05T11:34:06.018Z,13.86
2019-05-05T11:36:44.700Z,13.83
2019-05-05T11:39:14.948Z,14.20
2019-05-05T11:41:44.997Z,14.70
2019-05-05T11:44:15.319Z,14.37
2019-05-05T11:46:45.419Z,14.36
2019-05-05T11:49:15.437Z,14.58
2019-05-05T11:51:45.460Z,14.24
2019-05-05T11:54:15.451Z,14.21
2019-05-05T11:56:45.487Z,13.72
2019-05-05T11:59:15.474Z,13.57
2019-05-05T12:01:45.521Z,13.42
2019-05-05T12:04:15.671Z,13.39
2019-05-05T12:06:45.711Z,13.45
2019-05-05T12:09:33.789Z,12.98
2019-05-05T12:12:03.886Z,12.73
2019-05-05T12:14:33.814Z,12.79
2019-05-05T12:17:04.577Z,12.56
2019-05-05T12:19:34.781Z,12.66
2019-05-05T12:22:04.908Z,12.65
2019-05-05T12:24:44.292Z,12.57
2019-05-05T12:27:33.995Z,12.57
2019-05-05T12:30:07.102Z,12.91
2019-05-05T12:32:37.248Z,12.79
2019-05-05T12:35:07.639Z,12.49
2019-05-05T12:37:38.580Z,12.23
2019-05-05T12:40:08.709Z,12.29
2019-05-05T12:42:38.773Z,12.29
2019-05-05T12:45:13.784Z,12.67
2019-05-05T12:48:02.356Z,12.84
2019-05-05T12:50:33.839Z,12.41
2019-05-05T12:53:04.161Z,12.41
2019-05-05T12:55:41.589Z,12.89
2019-05-05T12:58:05.908Z,12.63
2019-05-05T13:00:37.275Z,12.69
2019-05-05T13:03:07.300Z,12.92
2019-05-05T13:05:37.314Z,13.13
2019-05-05T13:08:07.334Z,13.16
2019-05-05T13:10:37.308Z,13.16
2019-05-05T13:13:07.405Z,12.61
2019-05-05T13:15:37.390Z,12.69
2019-05-05T13:18:07.406Z,12.82
2019-05-05T13:21:05.263Z,12.82
2019-05-05T13:23:50.804Z,13.51
2019-05-05T13:26:39.766Z,13.51
2019-05-05T13:29:09.808Z,13.35
2019-05-05T13:31:39.891Z,13.35
2019-05-05T13:34:09.926Z,13.56
2019-05-05T13:36:39.910Z,13.01
2019-05-05T13:39:10.136Z,12.90
2019-05-05T13:41:40.145Z,12.86
2019-05-05T13:47:27.442Z,12.70
2019-05-05T13:50:03.945Z,12.87
2019-05-05T13:52:33.948Z,12.54
2019-05-05T13:55:04.004Z,12.48
2019-05-05T13:57:34.026Z,12.59
2019-05-05T14:00:04.764Z,13.17
2019-05-05T14:02:34.851Z,12.82
2019-05-05T14:05:04.988Z,13.57
2019-05-05T14:07:34.997Z,13.57
2019-05-05T14:10:05.284Z,13.18
2019-05-05T14:12:35.263Z,12.85
2019-05-05T14:15:05.671Z,12.45
2019-05-05T14:17:35.679Z,12.74
2019-05-05T14:20:11.738Z,12.50
2019-05-05T14:22:37.583Z,12.72
2019-05-05T14:25:13.558Z,12.54
2019-05-05T14:27:43.707Z,12.51
2019-05-05T14:30:43.497Z,12.67
2019-05-05T14:33:25.885Z,12.92
2019-05-05T14:36:08.617Z,12.95
2019-05-05T14:38:50.459Z,13.32
2019-05-05T14:41:20.463Z,13.25
2019-05-05T14:43:50.502Z,13.10
2019-05-05T14:46:20.483Z,13.10
2019-05-05T14:48:50.521Z,12.94
2019-05-05T14:51:20.515Z,12.49
2019-05-05T14:53:50.575Z,12.87
2019-05-05T14:56:20.572Z,13.06
2019-05-05T14:58:50.596Z,13.06
2019-05-05T15:01:20.612Z,13.12
2019-05-05T15:03:50.676Z,12.83
2019-05-05T15:06:38.491Z,12.87
2019-05-05T15:12:56.332Z,12.73
2019-05-05T15:15:26.343Z,12.52
2019-05-05T15:17:56.357Z,12.41
2019-05-05T15:20:26.371Z,12.55
2019-05-05T15:22:56.392Z,12.61
2019-05-05T15:25:26.427Z,12.61
2019-05-05T15:27:56.385Z,12.67
2019-05-05T15:30:33.372Z,12.66
2019-05-05T15:33:04.633Z,12.57
2019-05-05T15:35:34.739Z,12.10
2019-05-05T15:38:04.727Z,12.10
2019-05-05T15:40:36.473Z,12.59
2019-05-05T15:43:06.550Z,12.31
2019-05-05T15:45:36.599Z,12.27
2019-05-05T15:48:06.673Z,12.26
2019-05-05T15:50:36.725Z,12.38
2019-05-05T15:53:06.738Z,12.18
2019-05-05T15:55:36.739Z,12.18
2019-05-05T15:58:06.853Z,11.99
2019-05-05T16:00:36.892Z,12.21
2019-05-05T16:03:07.325Z,12.16
2019-05-05T16:05:37.477Z,12.22
2019-05-05T16:08:07.498Z,12.22
2019-05-05T16:10:37.525Z,12.11
2019-05-05T16:13:07.546Z,11.95
2019-05-05T16:15:56.574Z,12.36
2019-05-05T16:18:48.745Z,12.27
2019-05-05T16:21:26.735Z,12.36
2019-05-05T16:24:03.514Z,12.64
2019-05-05T16:26:33.632Z,12.36
2019-05-05T16:29:04.269Z,12.36
2019-05-05T16:31:34.398Z,12.70
2019-05-05T16:37:23.525Z,12.85
2019-05-05T16:39:54.350Z,12.29
2019-05-05T16:42:24.487Z,12.29
2019-05-05T16:44:54.533Z,12.47
2019-05-05T16:47:24.552Z,12.54
2019-05-05T16:49:54.569Z,12.45
2019-05-05T16:52:30.622Z,11.72
2019-05-05T16:55:23.878Z,11.72
2019-05-05T16:57:55.116Z,11.80
2019-05-05T17:00:25.857Z,11.85
2019-05-05T17:02:55.975Z,12.04
2019-05-05T17:05:26.012Z,11.75
2019-05-05T17:07:58.458Z,11.44
2019-05-05T17:10:27.760Z,11.45
2019-05-05T17:12:59.472Z,11.45
2019-05-05T17:16:00.352Z,11.50
2019-05-05T17:18:40.090Z,11.55
2019-05-05T17:21:15.030Z,11.82
2019-05-05T17:23:45.164Z,11.48
2019-05-05T17:26:15.164Z,11.42
2019-05-05T17:28:45.208Z,11.57
2019-05-05T17:31:15.207Z,11.48
2019-05-05T17:33:45.310Z,11.21
2019-05-05T17:36:15.345Z,11.50
2019-05-05T17:38:45.405Z,11.52
2019-05-05T17:41:49.330Z,11.58
2019-05-05T17:44:38.289Z,11.24
2019-05-05T17:47:17.445Z,11.36
2019-05-05T17:50:14.353Z,11.25
2019-05-05T17:52:50.863Z,11.02
2019-05-05T17:55:28.223Z,11.07
2019-05-05T17:58:02.156Z,10.92
2019-05-05T18:00:34.094Z,10.72
2019-05-05T18:03:04.549Z,11.11
2019-05-05T18:10:04.133Z,10.81
2019-05-05T18:13:08.648Z,10.67
2019-05-05T18:15:57.591Z,10.64
2019-05-05T18:18:27.636Z,10.57
2019-05-05T18:20:57.688Z,10.43
2019-05-05T18:23:27.735Z,10.43
2019-05-05T18:25:57.746Z,10.40
2019-05-05T18:28:27.785Z,10.39
2019-05-05T18:30:57.783Z,10.06
2019-05-05T18:33:27.833Z,10.04
2019-05-05T18:35:57.822Z,9.83
2019-05-05T18:38:27.858Z,9.91
2019-05-05T18:41:00.423Z,9.98
2019-05-05T18:43:37.355Z,9.81
2019-05-05T18:46:07.446Z,9.73
2019-05-05T18:48:37.479Z,10.09
2019-05-05T18:51:07.499Z,9.98
2019-05-05T18:53:37.530Z,10.09
2019-05-05T18:56:07.519Z,9.51
2019-05-05T18:58:37.914Z,9.91
2019-05-05T19:01:45.075Z,10.02
2019-05-05T19:04:19.960Z,9.67
2019-05-05T19:07:17.904Z,9.59
2019-05-05T19:09:54.041Z,9.95
2019-05-05T19:12:19.640Z,9.75
2019-05-05T19:14:49.670Z,9.66
2019-05-05T19:17:19.665Z,9.63
2019-05-05T19:19:54.919Z,9.58
2019-05-05T19:22:25.133Z,9.72
2019-05-05T19:24:55.205Z,9.69
2019-05-05T19:27:25.207Z,9.61
2019-05-05T19:29:55.338Z,9.28
2019-05-05T19:32:25.325Z,9.68
2019-05-05T19:34:55.356Z,9.23
2019-05-05T19:37:25.363Z,9.66
2019-05-05T19:39:55.409Z,9.38
2019-05-05T19:42:25.407Z,9.63
2019-05-05T19:44:55.418Z,9.69
2019-05-05T19:47:25.433Z,9.63
2019-05-05T19:50:03.685Z,9.54
2019-05-05T19:52:34.860Z,9.59
2019-05-05T19:55:05.429Z,9.78
2019-05-05T19:57:36.119Z,9.16
2019-05-05T20:00:07.188Z,9.31
2019-05-05T20:02:37.197Z,9.42
2019-05-05T20:05:07.642Z,9.08
2019-05-05T20:07:37.668Z,9.50
2019-05-05T20:10:09.742Z,9.81
2019-05-05T20:12:39.882Z,9.47
2019-05-05T20:15:14.744Z,9.90
2019-05-05T20:17:44.806Z,9.33
2019-05-05T20:20:14.812Z,9.67
2019-05-05T20:22:45.009Z,9.79
2019-05-05T20:25:15.501Z,9.73
2019-05-05T20:27:45.527Z,9.74
2019-05-05T20:30:16.133Z,9.49
2019-05-05T20:32:56.331Z,9.68
2019-05-05T20:35:45.393Z,9.46
2019-05-05T20:38:29.429Z,9.23
2019-05-05T20:41:14.205Z,9.28
2019-05-05T20:43:45.109Z,9.39
2019-05-05T20:46:15.265Z,9.26
2019-05-05T20:48:45.294Z,9.48
2019-05-05T20:51:15.311Z,9.59
2019-05-05T20:53:48.931Z,9.15
2019-05-05T20:56:17.118Z,9.65
2019-05-05T20:58:47.085Z,9.54
2019-05-05T21:01:17.103Z,9.54
2019-05-05T21:03:47.167Z,9.56
2019-05-05T21:06:17.144Z,9.18
2019-05-05T21:08:47.281Z,9.44
2019-05-05T21:11:17.276Z,9.50
2019-05-05T21:13:47.286Z,9.36
2019-05-05T21:16:17.292Z,9.39
2019-05-05T21:18:47.301Z,9.69
2019-05-05T21:21:22.066Z,9.37
2019-05-05T21:23:55.561Z,9.68
2019-05-05T21:26:43.192Z,9.64
2019-05-05T21:29:14.028Z,9.48
2019-05-05T21:31:44.158Z,9.57
2019-05-05T21:34:14.202Z,9.56
2019-05-05T21:36:44.934Z,9.47
2019-05-05T21:39:15.117Z,9.58
2019-05-05T21:41:45.090Z,9.66
2019-05-05T21:44:15.102Z,9.46
2019-05-05T21:46:45.095Z,9.62
2019-05-05T21:49:15.111Z,9.66
2019-05-05T21:51:55.405Z,9.55
2019-05-05T21:54:45.037Z,9.62
2019-05-05T21:57:28.043Z,9.53
2019-05-05T21:59:58.996Z,9.46
2019-05-05T22:02:29.183Z,9.35
2019-05-05T22:04:59.250Z,9.50
2019-05-05T22:07:29.346Z,9.46
2019-05-05T22:09:59.405Z,9.44
2019-05-05T22:12:29.443Z,9.52
2019-05-05T22:14:59.458Z,9.53
2019-05-05T22:17:29.446Z,9.43
2019-05-05T22:20:15.306Z,9.53
2019-05-05T22:22:45.838Z,9.60
2019-05-05T22:25:15.833Z,9.58
2019-05-05T22:27:45.818Z,9.59
2019-05-05T22:30:15.834Z,9.54
2019-05-05T22:32:45.801Z,9.53
2019-05-05T22:35:16.328Z,9.38
2019-05-05T22:37:46.351Z,9.14
2019-05-05T22:40:24.149Z,9.39
2019-05-05T22:42:54.695Z,9.29
2019-05-05T22:45:24.868Z,9.06
2019-05-05T22:47:54.929Z,9.26
2019-05-05T22:50:25.519Z,9.26
2019-05-05T22:52:55.507Z,9.11
2019-05-05T22:55:25.495Z,9.23
2019-05-05T22:57:55.483Z,8.99
2019-05-05T23:00:29.457Z,8.65
2019-05-05T23:03:04.449Z,8.81
2019-05-05T23:05:43.928Z,8.99
2019-05-05T23:08:13.945Z,8.95
2019-05-05T23:10:43.945Z,8.60
2019-05-05T23:13:13.907Z,8.88
2019-05-05T23:15:50.366Z,8.76
2019-05-05T23:18:25.776Z,8.73
2019-05-05T23:21:15.864Z,8.87
2019-05-05T23:24:03.974Z,8.84
2019-05-05T23:26:36.008Z,9.01
2019-05-05T23:29:05.928Z,8.62
2019-05-05T23:31:35.936Z,8.97
2019-05-05T23:34:05.902Z,8.82
2019-05-05T23:36:35.901Z,9.03
2019-05-05T23:39:07.088Z,8.89
2019-05-05T23:41:37.407Z,8.51
2019-05-05T23:44:07.391Z,8.61
2019-05-05T23:46:37.389Z,8.72
2019-05-05T23:49:07.370Z,8.69
2019-05-05T23:51:37.360Z,8.70
2019-05-05T23:54:07.828Z,8.71
2019-05-05T23:56:37.834Z,8.64
2019-05-05T23:59:07.802Z,8.64
